Time;durP1;ratioP1;P1;durP2;ratioP2;P2;SDS_P1;SDS_P2;PMS_P1;PMS_P2;Temp;Humidity;BMP_temperature;BMP_pressure;BME280_temperature;BME280_humidity;BME280_pressure;Samples;Min_cycle;Max_cycle;Signal;HPM_P1;HPM_P2
2022/12/04 00:01:24;;;;;;;102.03;43.60;;;;;;;0.14;95.07;102045.00;5010371;28;20030;-72
2022/12/04 00:03:55;;;;;;;93.33;44.93;;;;;;;0.18;95.12;102043.91;4992222;28;20028;-72
2022/12/04 00:06:21;;;;;;;94.63;38.90;;;;;;;0.16;95.20;102051.13;4992499;28;20394;-72
2022/12/04 00:08:48;;;;;;;103.80;45.07;;;;;;;0.12;95.37;102044.16;5010364;28;20060;-71
2022/12/04 00:11:16;;;;;;;100.10;45.53;;;;;;;-0.05;95.40;102036.03;4992296;28;20057;-72
2022/12/04 00:13:42;;;;;;;96.43;45.93;;;;;;;-0.06;95.84;102044.94;5008623;28;20013;-72
2022/12/04 00:16:11;;;;;;;94.43;44.47;;;;;;;0.01;95.70;102035.78;4991917;28;20026;-72
2022/12/04 00:18:37;;;;;;;93.27;43.87;;;;;;;0.04;95.82;102029.44;4992161;28;20085;-71
2022/12/04 00:21:08;;;;;;;96.70;43.83;;;;;;;-0.04;95.82;102033.28;4991970;28;20076;-71
2022/12/04 00:23:35;;;;;;;102.72;45.78;;;;;;;0.06;96.23;102049.75;5008782;28;20014;-72
2022/12/04 00:26:03;;;;;;;90.13;40.63;;;;;;;0.28;95.79;102032.91;4991811;28;20065;-72
2022/12/04 00:28:31;;;;;;;97.60;43.90;;;;;;;0.18;95.01;102038.59;5009382;28;20117;-71
2022/12/04 00:30:57;;;;;;;94.20;42.70;;;;;;;0.08;95.82;102037.25;5007804;28;20088;-71
2022/12/04 00:33:22;;;;;;;93.87;40.87;;;;;;;0.20;95.43;102026.09;4991737;28;20025;-71
2022/12/04 00:35:54;;;;;;;91.90;43.60;;;;;;;0.19;94.88;102035.00;4991720;28;20080;-71
2022/12/04 00:38:20;;;;;;;100.97;44.03;;;;;;;0.21;95.27;102027.84;5009114;28;20029;-72
2022/12/04 00:40:52;;;;;;;94.13;43.07;;;;;;;0.42;94.91;102030.53;4991412;28;20029;-72
2022/12/04 00:43:19;;;;;;;93.43;40.63;;;;;;;0.42;94.79;102035.84;4991157;28;20014;-71
2022/12/04 00:45:44;;;;;;;95.70;43.63;;;;;;;0.17;95.30;102028.88;5009003;28;20032;-71
2022/12/04 00:48:10;;;;;;;96.63;44.50;;;;;;;0.30;95.48;102026.56;4991478;28;20030;-72
2022/12/04 00:50:39;;;;;;;88.60;39.77;;;;;;;0.42;94.86;102027.88;5009107;28;20061;-72
2022/12/04 00:53:04;;;;;;;94.67;39.20;;;;;;;0.42;94.57;102031.38;5007786;28;20026;-71
2022/12/04 00:55:29;;;;;;;88.07;40.53;;;;;;;0.25;95.45;102024.09;4991031;28;20045;-71
2022/12/04 00:57:55;;;;;;;89.50;40.90;;;;;;;0.39;95.35;102030.63;5008864;28;20426;-71
2022/12/04 01:00:21;;;;;;;96.83;43.63;;;;;;;0.30;95.58;102020.38;4991265;28;20478;-71
2022/12/04 01:02:46;;;;;;;100.27;42.27;;;;;;;0.20;95.53;102023.44;4991178;28;20018;-71
2022/12/04 01:05:12;;;;;;;93.70;40.90;;;;;;;0.34;95.36;102017.53;5007661;28;20083;-71
2022/12/04 01:07:37;;;;;;;87.33;41.73;;;;;;;0.35;95.30;102023.72;4991214;28;20173;-72
2022/12/04 01:10:04;;;;;;;90.83;43.07;;;;;;;0.25;96.28;102029.41;4990721;28;20491;-71
2022/12/04 01:12:30;;;;;;;99.00;44.40;;;;;;;0.31;95.79;102038.09;5008238;28;20021;-71
2022/12/04 01:14:55;;;;;;;102.30;45.77;;;;;;;0.35;95.60;102023.72;4990742;28;20025;-72
2022/12/04 01:17:21;;;;;;;93.27;41.17;;;;;;;0.43;95.38;102018.94;4990663;28;20121;-72
2022/12/04 01:19:46;;;;;;;88.60;40.27;;;;;;;0.36;95.88;102020.13;4991101;28;20018;-72
2022/12/04 01:22:14;;;;;;;94.50;40.70;;;;;;;0.45;95.87;102027.72;4990694;28;20021;-71
2022/12/04 01:24:43;;;;;;;96.33;42.20;;;;;;;0.50;95.34;102023.06;5007286;28;20034;-72
2022/12/04 01:27:08;;;;;;;92.33;40.53;;;;;;;0.59;95.17;102030.69;4991134;28;20030;-71
2022/12/04 01:29:33;;;;;;;93.03;40.20;;;;;;;0.33;95.97;102025.59;4991202;28;20537;-72
2022/12/04 01:31:59;;;;;;;97.20;44.30;;;;;;;0.34;96.25;102016.66;4990985;28;20032;-72
2022/12/04 01:34:24;;;;;;;97.30;43.50;;;;;;;0.38;96.67;102023.59;4990675;28;20105;-72
2022/12/04 01:36:51;;;;;;;91.13;40.77;;;;;;;0.49;96.21;102018.69;5008160;28;20088;-73
2022/12/04 01:39:16;;;;;;;101.40;44.33;;;;;;;0.45;95.82;102025.06;5007551;28;20037;-73
2022/12/04 01:41:41;;;;;;;98.03;43.83;;;;;;;0.23;97.23;102015.31;4990816;28;20030;-73
2022/12/04 01:44:15;;;;;;;98.97;44.87;;;;;;;0.18;97.24;102021.75;4990743;28;20032;-73
2022/12/04 01:46:42;;;;;;;105.63;42.47;;;;;;;0.19;97.24;102024.34;4990763;28;20038;-73
2022/12/04 01:49:41;;;;;;;104.33;43.67;;;;;;;0.16;97.79;102019.16;4991060;28;20036;-73
2022/12/04 01:52:27;;;;;;;102.72;45.50;;;;;;;0.13;98.38;102013.97;4945637;28;20034;-72
2022/12/04 01:54:59;;;;;;;104.33;43.73;;;;;;;0.07;98.64;102011.56;4990655;28;20041;-73
2022/12/04 01:57:30;;;;;;;100.80;43.88;;;;;;;0.17;98.40;102015.56;5008313;28;20026;-73
2022/12/04 02:00:03;;;;;;;103.17;43.27;;;;;;;0.34;97.40;102016.66;4991028;28;20414;-71
2022/12/04 02:02:41;;;;;;;99.30;43.30;;;;;;;0.12;98.44;102006.88;4990912;28;20094;-72
2022/12/04 02:05:10;;;;;;;107.40;45.10;;;;;;;0.13;98.04;102019.31;4990989;28;20021;-72
2022/12/04 02:07:37;;;;;;;112.43;43.73;;;;;;;0.21;98.59;102016.31;4990617;28;20116;-70
2022/12/04 02:10:05;;;;;;;116.73;43.77;;;;;;;0.36;97.88;102021.00;5011866;28;20093;-72
2022/12/04 02:12:33;;;;;;;103.90;43.13;;;;;;;0.47;97.15;102018.75;4994240;28;20033;-72
2022/12/04 02:15:31;;;;;;;114.60;47.83;;;;;;;0.50;97.25;102009.75;4994517;28;20038;-72
2022/12/04 02:18:20;;;;;;;97.37;41.37;;;;;;;0.33;98.00;102012.28;5011442;28;20482;-72
2022/12/04 02:20:57;;;;;;;111.80;44.23;;;;;;;0.49;97.44;102000.03;4993841;28;20028;-72
2022/12/04 02:23:53;;;;;;;105.00;45.83;;;;;;;0.25;98.04;102002.78;5010228;28;20013;-72
2022/12/04 02:26:48;;;;;;;105.37;44.80;;;;;;;0.32;98.64;102002.53;4994252;28;20498;-71
2022/12/04 02:29:33;;;;;;;100.40;42.50;;;;;;;0.61;96.66;101999.50;4991350;28;20048;-72
2022/12/04 02:32:08;;;;;;;111.93;45.67;;;;;;;0.53;97.72;101990.97;4994070;28;20032;-73
2022/12/04 02:34:54;;;;;;;104.07;44.27;;;;;;;0.49;97.33;102000.03;4994475;28;20045;-74
2022/12/04 02:37:36;;;;;;;108.67;45.10;;;;;;;0.50;97.16;101991.09;4993862;28;20133;-70
2022/12/04 02:40:06;;;;;;;;;;;;;;;0.37;97.91;101995.22;4994459;28;20029;-71
2022/12/04 02:42:48;;;;;;;104.57;44.53;;;;;;;0.32;97.92;102002.53;4993653;28;19960;-72
2022/12/04 02:45:20;;;;;;;99.87;41.80;;;;;;;0.39;98.22;101990.69;4993509;28;20065;-72
2022/12/04 02:47:46;;;;;;;113.47;44.43;;;;;;;0.50;98.23;101980.44;5011010;28;20045;-71
2022/12/04 02:50:20;;;;;;;106.70;44.27;;;;;;;0.40;97.82;101989.78;4993784;28;20030;-71
2022/12/04 02:52:52;;;;;;;103.77;44.37;;;;;;;0.20;99.31;101978.16;4993332;28;20028;-71
2022/12/04 02:55:38;;;;;;;94.00;37.05;;;;;;;0.28;99.03;101979.63;4994045;28;20060;-71
2022/12/04 02:58:10;;;;;;;111.77;44.10;;;;;;;0.34;98.42;101979.38;5010171;28;20096;-71
2022/12/04 03:00:38;;;;;;;110.60;45.07;;;;;;;0.32;98.48;101991.88;5009625;28;20044;-71
2022/12/04 03:03:17;;;;;;;107.37;41.83;;;;;;;0.47;98.44;101981.44;4992961;28;20018;-71
2022/12/04 03:05:58;;;;;;;101.27;42.13;;;;;;;0.56;98.09;101985.50;4993546;28;20022;-73
2022/12/04 03:08:46;;;;;;;111.30;47.70;;;;;;;0.40;98.78;101989.78;5011293;28;20053;-70
2022/12/04 03:11:11;;;;;;;102.43;43.27;;;;;;;0.48;98.57;101992.97;5010301;28;20061;-71
2022/12/04 03:13:43;;;;;;;108.13;44.20;;;;;;;0.48;98.99;101999.16;5010981;28;20022;-71
2022/12/04 03:16:33;;;;;;;106.17;43.77;;;;;;;0.37;98.81;101996.06;4993089;28;20025;-71
2022/12/04 03:19:27;;;;;;;112.13;45.63;;;;;;;0.64;98.84;101999.34;4993040;28;20426;-70
2022/12/04 03:22:01;;;;;;;101.53;42.97;;;;;;;0.59;98.66;101996.03;5007319;28;20045;-73
2022/12/04 03:24:37;;;;;;;121.20;48.00;;;;;;;0.41;99.06;102004.81;5010703;28;20034;-72
2022/12/04 03:27:15;;;;;;;106.77;44.50;;;;;;;0.43;98.96;101994.97;5009056;28;20077;-72
2022/12/04 03:29:43;;;;;;;104.13;42.63;;;;;;;0.32;99.16;101992.75;5009262;28;20057;-74
2022/12/04 03:32:27;;;;;;;108.47;45.97;;;;;;;0.36;99.82;101993.50;4995463;28;20033;-71
2022/12/04 03:35:30;;;;;;;111.10;44.60;;;;;;;0.49;99.13;101994.69;4995675;28;20022;-71
2022/12/04 03:38:16;;;;;;;104.63;42.43;;;;;;;0.66;97.98;101986.84;4995504;28;20038;-71
2022/12/04 03:40:45;;;;;;;103.00;41.07;;;;;;;0.74;98.35;101990.03;4994866;28;20104;-71
2022/12/04 03:43:19;;;;;;;103.37;43.10;;;;;;;0.51;98.71;101987.50;4994952;28;20124;-71
2022/12/04 03:45:51;;;;;;;102.43;41.07;;;;;;;0.57;99.12;101987.22;4994945;28;20077;-71
2022/12/04 03:48:22;;;;;;;100.13;43.13;;;;;;;0.76;98.05;101988.16;5013184;28;20021;-71
2022/12/04 03:51:06;;;;;;;94.45;41.33;;;;;;;0.70;98.57;101983.09;4994708;28;20399;-72
2022/12/04 03:53:40;;;;;;;95.90;41.30;;;;;;;0.60;98.78;101987.09;5011439;28;20022;-71
2022/12/04 03:56:13;;;;;;;101.27;42.17;;;;;;;0.81;98.14;101986.16;4994952;28;20096;-71
2022/12/04 03:58:43;;;;;;;105.90;43.60;;;;;;;0.54;98.85;101982.03;5011846;28;20112;-70
2022/12/04 04:01:12;;;;;;;100.33;40.43;;;;;;;0.46;99.18;101989.50;5011078;28;20022;-70
2022/12/04 04:03:44;;;;;;;103.47;43.63;;;;;;;0.54;99.55;101979.38;5012720;28;20026;-71
2022/12/04 04:06:17;;;;;;;101.13;41.33;;;;;;;0.62;99.24;101979.91;5010849;28;20025;-71
2022/12/04 04:08:47;;;;;;;107.03;46.97;;;;;;;0.70;98.55;101977.75;4994727;28;20030;-71
2022/12/04 04:11:20;;;;;;;101.77;41.43;;;;;;;0.76;98.80;101985.47;5012784;28;20026;-72
2022/12/04 04:25:16;;;;;;;105.00;42.80;;;;;;;0.56;99.30;101979.31;5012438;28;20065;-71
2022/12/04 04:27:50;;;;;;;98.77;42.60;;;;;;;0.48;100.00;101977.84;4995157;28;20080;-69
2022/12/04 04:30:16;;;;;;;103.23;40.90;;;;;;;0.54;99.78;101982.03;4993810;28;20029;-71
2022/12/04 04:32:51;;;;;;;99.03;42.53;;;;;;;0.64;99.73;101978.03;4994316;28;20028;-72
2022/12/04 04:35:32;;;;;;;107.93;42.97;;;;;;;0.54;99.72;101976.72;4994376;28;20030;-72
2022/12/04 04:38:12;;;;;;;95.80;41.77;;;;;;;0.69;99.29;101976.03;4994066;28;20072;-71
2022/12/04 04:41:04;;;;;;;106.80;42.23;;;;;;;0.64;99.52;101966.50;5010643;28;20281;-71
2022/12/04 04:43:36;;;;;;;101.68;43.08;;;;;;;0.85;99.35;101983.34;4994583;28;20022;-71
2022/12/04 04:46:27;;;;;;;109.03;44.27;;;;;;;0.77;99.21;101981.88;4994160;28;20044;-72
2022/12/04 04:48:56;;;;;;;101.90;44.07;;;;;;;0.79;99.30;101982.69;4994114;28;20030;-71
2022/12/04 04:51:22;;;;;;;97.37;43.27;;;;;;;0.78;98.67;101985.41;4993880;28;20025;-71
2022/12/04 04:53:51;;;;;;;95.80;41.83;;;;;;;0.69;99.50;101976.03;4993360;28;20022;-70
2022/12/04 04:56:16;;;;;;;97.53;40.60;;;;;;;0.62;99.90;101979.91;4993945;28;20375;-71
2022/12/04 04:58:42;;;;;;;102.87;44.47;;;;;;;0.66;99.53;101970.00;5010316;28;20057;-71
2022/12/04 05:01:11;;;;;;;95.20;40.00;;;;;;;0.60;100.00;101980.91;5010450;28;20028;-71
2022/12/04 05:03:37;;;;;;;95.50;42.67;;;;;;;0.66;99.99;101981.50;5011587;28;20026;-71
2022/12/04 05:06:06;;;;;;;98.37;41.10;;;;;;;0.81;99.13;101988.81;4993845;28;20022;-71
2022/12/04 05:08:32;;;;;;;106.00;43.40;;;;;;;0.75;99.30;101986.44;4994249;28;20058;-71
2022/12/04 05:10:57;;;;;;;98.77;42.53;;;;;;;0.80;98.87;101991.56;4993846;28;20036;-71
2022/12/04 05:13:22;;;;;;;101.40;44.03;;;;;;;0.97;98.85;101985.44;5010955;28;20022;-71
2022/12/04 05:16:00;;;;;;;110.67;43.10;;;;;;;0.64;99.17;101988.69;4993396;28;20498;-72
2022/12/04 05:18:26;;;;;;;98.70;42.27;;;;;;;0.69;99.60;101992.03;4993727;28;20034;-71
2022/12/04 05:20:51;;;;;;;97.80;43.33;;;;;;;0.78;98.88;101994.31;4993720;28;20018;-71
2022/12/04 05:23:16;;;;;;;97.90;43.30;;;;;;;0.70;99.38;101993.75;4993556;28;20026;-71
2022/12/04 05:25:42;;;;;;;108.77;45.23;;;;;;;0.87;98.74;102000.16;4993782;28;20033;-71
2022/12/04 05:28:07;;;;;;;99.17;42.90;;;;;;;0.77;99.45;102000.53;4993673;28;20534;-71
2022/12/04 05:30:33;;;;;;;108.57;42.70;;;;;;;0.76;99.56;102004.16;4993161;28;20026;-71
2022/12/04 05:32:58;;;;;;;100.93;43.43;;;;;;;0.77;99.02;102000.53;4993697;28;20109;-71
2022/12/04 05:35:23;;;;;;;111.23;45.53;;;;;;;0.78;99.38;101991.63;4993762;28;20026;-71
2022/12/04 05:37:49;;;;;;;98.27;42.40;;;;;;;0.90;98.64;101994.66;5010930;28;20052;-71
2022/12/04 05:40:14;;;;;;;103.43;43.03;;;;;;;0.79;99.38;101990.69;4993951;28;20057;-71
2022/12/04 05:42:40;;;;;;;108.10;45.77;;;;;;;0.95;98.71;101992.66;5011692;28;20021;-71
2022/12/04 05:45:06;;;;;;;114.70;45.03;;;;;;;0.82;99.25;101993.22;4997582;28;20057;-72
2022/12/04 05:47:31;;;;;;;101.73;42.57;;;;;;;0.77;99.39;101989.88;4996800;28;20022;-72
2022/12/04 05:49:57;;;;;;;105.30;44.10;;;;;;;0.98;99.01;101992.56;4997400;28;20057;-71
2022/12/04 05:52:22;;;;;;;106.20;45.03;;;;;;;1.03;98.84;101990.50;4997153;28;20032;-71
2022/12/04 05:54:47;;;;;;;100.63;41.50;;;;;;;0.81;99.82;101991.47;4997456;28;20025;-71
2022/12/04 05:57:13;;;;;;;108.33;47.90;;;;;;;0.91;99.30;101991.06;5013431;28;20048;-70
2022/12/04 05:59:38;;;;;;;102.43;43.50;;;;;;;0.74;100.00;101990.03;4997685;28;20430;-71
2022/12/04 06:02:03;;;;;;;105.93;44.90;;;;;;;0.80;100.00;101989.75;5013199;28;20026;-71
2022/12/04 06:04:29;;;;;;;105.33;44.87;;;;;;;0.85;99.84;101981.56;4996894;28;20019;-72
2022/12/04 06:06:54;;;;;;;117.93;45.43;;;;;;;0.78;100.00;101991.63;4997451;28;20096;-71
2022/12/04 06:09:20;;;;;;;108.43;44.37;;;;;;;0.80;99.75;101989.75;4997402;28;20029;-73
2022/12/04 06:11:45;;;;;;;109.20;46.30;;;;;;;0.95;99.74;101987.34;4996935;28;20029;-70
2022/12/04 06:14:13;;;;;;;108.27;44.23;;;;;;;0.97;99.43;101985.44;4997185;28;20022;-73
2022/12/04 06:16:41;;;;;;;106.00;46.23;;;;;;;1.07;98.91;101986.78;4996194;28;20029;-71
2022/12/04 06:19:11;;;;;;;107.13;43.13;;;;;;;1.01;99.50;101987.06;4996832;28;20026;-73
2022/12/04 06:21:39;;;;;;;111.07;47.60;;;;;;;0.95;99.67;101992.66;5014155;28;20034;-71
2022/12/04 06:24:04;;;;;;;104.37;42.27;;;;;;;0.90;100.00;101994.66;4996339;28;20026;-71
2022/12/04 06:26:30;;;;;;;110.40;45.40;;;;;;;0.85;99.92;102002.00;4996623;28;20030;-71
2022/12/04 06:28:57;;;;;;;109.13;45.77;;;;;;;0.87;99.79;102005.47;4996911;28;20033;-72
2022/12/04 06:31:24;;;;;;;107.47;45.67;;;;;;;0.90;99.83;102006.19;5014312;28;20029;-72
2022/12/04 06:33:49;;;;;;;114.33;46.10;;;;;;;0.84;100.00;102000.28;4996394;28;20053;-72
2022/12/04 06:36:22;;;;;;;115.53;43.17;;;;;;;0.89;100.00;101998.28;4996514;28;20053;-71
2022/12/04 06:38:50;;;;;;;104.03;44.00;;;;;;;0.82;100.00;101998.53;5014258;28;20026;-72
2022/12/04 06:41:18;;;;;;;102.70;41.33;;;;;;;0.92;99.97;102008.81;4996490;28;20057;-71
2022/12/04 06:43:44;;;;;;;104.80;44.43;;;;;;;0.99;100.00;102005.81;4996369;28;20033;-72
2022/12/04 06:46:16;;;;;;;115.93;48.13;;;;;;;1.20;99.22;102003.97;4996100;28;20077;-72
2022/12/04 06:48:41;;;;;;;106.45;44.58;;;;;;;1.02;99.57;101994.13;4996550;28;20066;-73
2022/12/04 06:51:13;;;;;;;108.43;46.43;;;;;;;1.12;99.04;102000.78;4996148;28;20109;-72
2022/12/04 06:53:38;;;;;;;103.97;43.50;;;;;;;0.91;100.00;101996.41;4995782;28;20025;-72
2022/12/04 06:56:06;;;;;;;115.00;45.43;;;;;;;0.89;100.00;102003.59;4996093;28;20037;-72
2022/12/04 06:58:32;;;;;;;109.13;44.90;;;;;;;1.11;99.72;102009.72;5013219;28;20041;-72
2022/12/04 07:00:58;;;;;;;114.77;46.47;;;;;;;1.14;99.96;102020.25;4996335;28;20030;-72
2022/12/04 07:03:24;;;;;;;120.50;48.07;;;;;;;1.13;100.00;102018.50;4995795;28;20029;-72
2022/12/04 07:05:50;;;;;;;106.50;45.10;;;;;;;1.09;99.61;102015.09;5012278;28;20040;-74
2022/12/04 07:08:16;;;;;;;121.20;48.70;;;;;;;0.90;100.00;102010.66;4996139;28;20048;-71
2022/12/04 07:10:42;;;;;;;122.23;47.07;;;;;;;0.96;100.00;102015.72;4995876;28;20033;-71
2022/12/04 07:13:08;;;;;;;116.63;46.00;;;;;;;1.00;100.00;102017.34;4995660;28;20026;-72
2022/12/04 07:15:34;;;;;;;115.87;43.40;;;;;;;1.14;100.00;102006.91;5011719;28;20025;-70
2022/12/04 07:18:00;;;;;;;118.97;46.73;;;;;;;1.00;100.00;102012.00;5012570;28;20056;-71
2022/12/04 07:20:26;;;;;;;127.97;48.60;;;;;;;1.00;100.00;102012.88;4996033;28;20394;-69
2022/12/04 07:22:51;;;;;;;122.30;49.90;;;;;;;1.11;100.00;102004.38;5013455;28;20526;-70
2022/12/04 07:25:17;;;;;;;119.87;46.77;;;;;;;1.11;100.00;102009.72;4995992;28;20113;-71
2022/12/04 07:27:42;;;;;;;117.70;47.70;;;;;;;1.10;100.00;102010.63;5011927;28;20060;-71
2022/12/04 07:30:08;;;;;;;118.33;44.47;;;;;;;1.16;100.00;102007.69;4996112;28;20467;-70
2022/12/04 07:32:34;;;;;;;118.10;46.97;;;;;;;1.26;99.96;102008.16;5011843;28;20396;-70
2022/12/04 07:34:59;;;;;;;116.13;44.77;;;;;;;1.25;99.72;102004.63;4995335;28;20049;-69
2022/12/04 07:37:25;;;;;;;118.73;46.17;;;;;;;1.29;99.93;102008.84;4995138;28;20056;-70
2022/12/04 07:39:51;;;;;;;119.13;46.80;;;;;;;1.25;100.00;102001.94;5013195;28;20049;-69
2022/12/04 07:42:17;;;;;;;123.57;47.97;;;;;;;1.18;100.00;102011.19;4995385;28;20379;-70
2022/12/04 07:44:42;;;;;;;125.33;47.63;;;;;;;1.14;100.00;102009.56;5013049;28;20037;-72
2022/12/04 07:47:08;;;;;;;125.73;48.37;;;;;;;1.43;99.35;102023.34;4994908;28;20040;-71
2022/12/04 07:49:33;;;;;;;122.17;48.07;;;;;;;1.36;99.48;102015.63;5012848;28;20599;-70
2022/12/04 07:51:58;;;;;;;113.17;44.87;;;;;;;1.41;99.70;102011.91;4994935;28;20026;-70
2022/12/04 07:54:24;;;;;;;116.53;45.20;;;;;;;1.46;99.96;102031.25;4995210;28;20061;-70
2022/12/04 07:56:49;;;;;;;127.20;48.10;;;;;;;1.35;99.71;102024.59;5011398;28;20037;-68
2022/12/04 07:59:15;;;;;;;128.52;48.17;;;;;;;1.30;99.67;102026.63;4994977;28;20124;-70
2022/12/04 08:01:40;;;;;;;118.20;44.85;;;;;;;1.27;100.00;102031.22;4994892;28;20027;-70
2022/12/04 08:04:05;;;;;;;118.43;47.47;;;;;;;1.46;99.62;102031.25;4994896;28;20030;-70
2022/12/04 08:06:32;;;;;;;122.43;48.00;;;;;;;1.38;99.89;102036.06;4993687;28;20038;-71
2022/12/04 08:08:58;;;;;;;130.13;51.17;;;;;;;1.36;100.00;102031.66;4995054;28;20093;-71
2022/12/04 08:11:26;;;;;;;133.13;50.03;;;;;;;1.43;99.85;102031.38;4994276;28;20471;-71
2022/12/04 08:13:59;;;;;;;125.33;51.67;;;;;;;1.28;99.50;102025.81;4994184;28;20037;-71
2022/12/04 08:16:26;;;;;;;124.93;49.50;;;;;;;1.24;100.00;102020.66;4993676;28;20037;-71
2022/12/04 08:18:52;;;;;;;136.37;51.20;;;;;;;1.26;100.00;102030.34;4994713;28;20442;-71
2022/12/04 08:21:20;;;;;;;127.13;49.27;;;;;;;1.33;100.00;102021.13;4995021;28;20065;-71
2022/12/04 08:23:47;;;;;;;139.60;50.83;;;;;;;1.31;100.00;102028.34;4994739;28;20038;-71
2022/12/04 08:26:13;;;;;;;131.13;50.37;;;;;;;1.31;100.00;102028.34;5010294;28;20137;-71
2022/12/04 08:28:40;;;;;;;113.17;45.77;;;;;;;1.34;100.00;102014.84;4994261;28;20022;-71
2022/12/04 08:31:26;;;;;;;134.47;50.83;;;;;;;1.50;100.00;102032.81;4991558;28;20094;-70
2022/12/04 08:33:54;;;;;;;132.33;50.07;;;;;;;1.63;99.50;102028.66;4985457;28;20022;-70
2022/12/04 08:36:21;;;;;;;129.13;49.27;;;;;;;1.42;99.95;102024.31;4991539;28;20033;-71
2022/12/04 08:38:47;;;;;;;131.40;47.97;;;;;;;1.60;99.86;102018.09;4992210;28;20053;-70
2022/12/04 08:41:15;;;;;;;128.13;50.83;;;;;;;1.61;100.00;102019.84;4991651;28;20030;-70
2022/12/04 08:43:41;;;;;;;129.07;52.23;;;;;;;1.65;99.08;102016.09;5008807;28;20054;-71
2022/12/04 08:46:13;;;;;;;123.17;47.10;;;;;;;1.75;99.30;102017.38;4991186;28;20034;-71
2022/12/04 08:48:38;;;;;;;128.25;53.15;;;;;;;1.82;99.04;102016.13;4991505;28;20026;-70
2022/12/04 08:51:06;;;;;;;125.80;47.53;;;;;;;1.95;98.58;102018.22;4992065;28;20029;-71
2022/12/04 08:53:32;;;;;;;118.47;50.72;;;;;;;1.94;98.82;102020.03;4991663;28;20118;-71
2022/12/04 08:56:00;;;;;;;113.60;47.60;;;;;;;1.87;98.84;102021.25;4992003;28;20101;-71
2022/12/04 08:58:25;;;;;;;116.82;45.33;;;;;;;1.93;98.65;102025.44;4992136;28;20030;-70
2022/12/04 09:00:50;;;;;;;117.78;46.45;;;;;;;1.86;98.64;102017.72;4991720;28;20025;-70
2022/12/04 09:03:19;;;;;;;109.82;44.53;;;;;;;1.89;98.78;102019.38;4990934;28;20029;-71
2022/12/04 09:05:45;;;;;;;116.10;45.38;;;;;;;1.86;98.48;102017.72;4990970;28;20125;-69
2022/12/04 09:08:12;;;;;;;116.22;45.40;;;;;;;1.79;98.91;102018.97;4986958;28;20014;-71
2022/12/04 09:10:38;;;;;;;119.17;45.30;;;;;;;1.99;98.42;102019.81;4989023;28;20056;-71
2022/12/04 09:13:03;;;;;;;113.50;45.35;;;;;;;1.90;98.79;102021.13;4988630;28;20483;-71
2022/12/04 09:15:29;;;;;;;108.50;46.67;;;;;;;1.98;98.38;102012.75;4972907;28;20054;-70
2022/12/04 09:17:54;;;;;;;112.90;45.03;;;;;;;2.22;97.31;102022.22;4972543;28;20026;-71
2022/12/04 09:20:20;;;;;;;123.88;49.78;;;;;;;2.04;97.77;102020.44;4972209;28;20022;-70
2022/12/04 09:22:45;;;;;;;113.75;46.35;;;;;;;2.18;97.44;102017.97;4972488;28;20045;-71
2022/12/04 09:25:11;;;;;;;113.82;47.03;;;;;;;2.28;96.92;102011.22;4972828;28;20574;-72
2022/12/04 09:27:37;;;;;;;108.10;45.75;;;;;;;2.11;97.68;102013.88;4972723;28;20034;-74
2022/12/04 09:30:10;;;;;;;115.20;49.25;;;;;;;2.24;97.64;102014.97;4988821;28;20026;-70
2022/12/04 09:32:35;;;;;;;96.78;44.10;;;;;;;2.43;96.71;102010.44;4972561;28;20038;-70
2022/12/04 09:35:01;;;;;;;107.78;45.28;;;;;;;2.52;96.16;102018.94;4972378;28;20026;-71
2022/12/04 09:37:26;;;;;;;97.55;41.97;;;;;;;2.69;95.45;102005.56;4973090;28;20022;-70
2022/12/04 09:39:52;;;;;;;105.68;44.00;;;;;;;2.70;95.70;102009.97;4972632;28;20033;-72
2022/12/04 09:42:26;;;;;;;93.68;42.83;;;;;;;2.52;96.20;102008.22;4972099;28;20026;-72
2022/12/04 09:45:03;;;;;;;99.57;45.33;;;;;;;2.57;96.44;102012.41;4972663;28;20049;-72
2022/12/04 09:47:36;;;;;;;104.05;44.58;;;;;;;2.44;96.27;102001.47;4972154;28;20026;-72
2022/12/04 09:50:10;;;;;;;101.35;45.65;;;;;;;2.50;96.70;102004.78;4972332;28;20093;-71
2022/12/04 09:52:52;;;;;;;98.13;42.72;;;;;;;2.64;96.36;102002.25;4972238;28;20062;-71
2022/12/04 09:55:27;;;;;;;92.22;39.40;;;;;;;2.38;96.78;101996.44;4972430;28;20054;-71
2022/12/04 09:57:56;;;;;;;100.05;42.65;;;;;;;2.52;96.67;101992.19;4971733;28;20042;-70
2022/12/04 10:00:22;;;;;;;93.68;41.75;;;;;;;2.63;96.14;101990.69;4971749;28;20046;-70
2022/12/04 10:02:53;;;;;;;99.57;41.60;;;;;;;2.45;96.95;101992.50;4972022;28;20041;-71
2022/12/04 10:05:57;;;;;;;102.22;44.42;;;;;;;2.57;96.74;101995.50;4971777;28;20026;-71
2022/12/04 10:08:28;;;;;;;110.15;40.97;;;;;;;2.58;97.18;101981.19;4969208;28;20041;-72
2022/12/04 10:11:17;;;;;;;93.03;41.70;;;;;;;2.64;96.71;101991.56;4971575;28;20037;-71
2022/12/04 10:13:42;;;;;;;80.03;36.17;;;;;;;2.76;96.73;101980.22;4971674;28;20082;-72
2022/12/04 10:16:22;;;;;;;96.20;42.28;;;;;;;2.90;96.12;101993.72;4971339;28;20034;-73
2022/12/04 10:19:05;;;;;;;102.80;42.92;;;;;;;2.59;97.19;101994.47;4971357;28;20058;-72
2022/12/04 10:21:57;;;;;;;87.95;38.50;;;;;;;2.81;96.28;101988.88;4971977;28;20483;-72
2022/12/04 10:24:26;;;;;;;;;;;;;;;2.77;96.66;101989.97;4972049;28;20384;-72
2022/12/04 10:26:57;;;;;;;85.45;37.95;;;;;;;2.78;96.11;101989.03;4971866;28;19910;-71
2022/12/04 10:29:35;;;;;;;86.90;39.45;;;;;;;2.81;96.41;101988.88;4973490;28;20458;-72
2022/12/04 10:32:31;;;;;;;81.78;36.90;;;;;;;2.96;95.71;101982.72;4991045;28;20038;-71
2022/12/04 10:35:13;;;;;;;91.95;41.60;;;;;;;2.77;96.64;101986.44;4974569;28;20085;-72
2022/12/04 10:37:41;;;;;;;92.22;42.00;;;;;;;2.82;96.69;101974.56;4991074;28;20121;-71
2022/12/04 10:40:30;;;;;;;85.13;38.75;;;;;;;2.76;97.01;101982.91;4975370;28;20080;-68
2022/12/04 10:43:17;;;;;;;87.45;41.05;;;;;;;2.78;97.12;101978.34;4977626;28;20022;-72
2022/12/04 10:45:42;;;;;;;87.07;39.63;;;;;;;2.71;97.06;101976.94;4978056;28;20113;-71
2022/12/04 10:48:31;;;;;;;84.00;38.75;;;;;;;2.73;96.87;101975.03;4977635;28;20109;-71
2022/12/04 10:50:56;;;;;;;85.70;40.55;;;;;;;2.63;96.91;101985.34;4977801;28;20054;-71
2022/12/04 10:53:30;;;;;;;83.45;40.40;;;;;;;2.55;98.04;101970.66;4977429;28;20503;-72
2022/12/04 10:56:06;;;;;;;100.43;43.15;;;;;;;2.91;96.61;101968.72;4977519;28;20060;-71
2022/12/04 10:58:34;;;;;;;89.20;40.05;;;;;;;2.74;96.91;101974.09;4977447;28;20093;-71
2022/12/04 11:01:13;;;;;;;91.53;41.20;;;;;;;2.65;97.06;101966.56;4977097;28;20081;-72
2022/12/04 11:03:43;;;;;;;91.45;39.30;;;;;;;2.72;96.61;101962.59;4979117;28;20482;-71
2022/12/04 11:06:09;;;;;;;87.40;41.00;;;;;;;2.76;97.23;101957.97;4977569;28;20050;-72
2022/12/04 11:08:44;;;;;;;93.07;40.47;;;;;;;2.88;96.91;101962.69;4993674;28;20060;-72
2022/12/04 11:11:13;;;;;;;86.60;40.17;;;;;;;2.65;97.13;101958.53;4977330;28;20494;-70
2022/12/04 11:13:45;;;;;;;90.05;43.67;;;;;;;2.62;97.41;101961.38;4975354;28;20113;-71
2022/12/04 11:16:32;;;;;;;88.75;40.88;;;;;;;2.80;97.11;101960.38;4970269;28;20042;-72
2022/12/04 11:18:57;;;;;;;91.45;42.55;;;;;;;2.64;97.51;101963.00;4971560;28;20026;-70
2022/12/04 11:21:26;;;;;;;94.78;43.50;;;;;;;2.76;97.37;101958.84;4971936;28;20018;-71
2022/12/04 11:23:52;;;;;;;82.65;40.25;;;;;;;2.69;97.40;101952.09;4971079;28;20029;-71
2022/12/04 11:26:37;;;;;;;91.47;42.90;;;;;;;2.64;97.83;101948.78;4971021;28;20030;-69
2022/12/04 11:29:04;;;;;;;89.93;42.78;;;;;;;2.71;97.95;101951.06;4970736;28;20482;-71
2022/12/04 11:31:31;;;;;;;92.38;41.55;;;;;;;2.92;97.25;101949.03;4972067;28;20026;-71
2022/12/04 11:34:04;;;;;;;88.28;41.08;;;;;;;2.68;97.87;101945.00;4971143;28;20171;-71
2022/12/04 11:36:34;;;;;;;84.60;41.30;;;;;;;2.87;97.32;101951.13;4969940;28;20030;-71
2022/12/04 11:39:11;;;;;;;87.80;41.65;;;;;;;3.01;96.83;101957.53;4971390;28;20023;-71